Time;durP1;ratioP1;P1;durP2;ratioP2;P2;SDS_P1;SDS_P2;PMS_P1;PMS_P2;Temp;Humidity;BMP_temperature;BMP_pressure;BME280_temperature;BME280_humidity;BME280_pressure;Samples;Min_cycle;Max_cycle;Signal;HPM_P1;HPM_P2
2022/02/07 00:06:06;;;;;;;27.65;19.07;;;23.00;84.80;;;;;;1881938;75;21676;-84
2022/02/07 00:08:37;;;;;;;28.15;19.70;;;23.00;84.70;;;;;;1897069;74;21209;-84
2022/02/07 00:11:08;;;;;;;34.67;19.37;;;23.00;84.60;;;;;;1881744;75;22304;-85
2022/02/07 00:13:39;;;;;;;27.98;18.98;;;23.00;84.30;;;;;;1888661;74;21135;-84
2022/02/07 00:16:10;;;;;;;27.48;18.50;;;23.00;84.50;;;;;;1882197;74;21234;-85
2022/02/07 00:18:41;;;;;;;24.37;18.05;;;23.00;85.10;;;;;;1883271;75;21068;-84
2022/02/07 00:21:12;;;;;;;26.82;17.98;;;23.00;85.20;;;;;;1887732;74;21147;-84
2022/02/07 00:23:42;;;;;;;25.77;17.90;;;22.90;85.10;;;;;;1879039;75;21123;-85
2022/02/07 00:26:13;;;;;;;26.50;18.65;;;22.90;85.30;;;;;;1885365;74;21131;-85
2022/02/07 00:28:44;;;;;;;35.98;24.77;;;22.90;85.80;;;;;;1860890;76;21190;-84
2022/02/07 00:31:15;;;;;;;29.75;22.05;;;22.90;85.20;;;;;;1881570;75;21567;-85
2022/02/07 00:33:45;;;;;;;33.25;22.05;;;22.90;85.40;;;;;;1878917;75;21060;-85
2022/02/07 00:36:18;;;;;;;32.03;21.70;;;22.90;85.80;;;;;;1880443;75;21076;-84
2022/02/07 00:38:53;;;;;;;31.10;22.17;;;22.90;85.60;;;;;;1879487;75;21480;-84
2022/02/07 00:41:26;;;;;;;28.73;20.80;;;22.90;85.30;;;;;;1883734;74;21626;-86
2022/02/07 00:43:57;;;;;;;27.55;20.00;;;22.90;85.10;;;;;;1880269;75;21209;-84
2022/02/07 00:46:36;;;;;;;27.22;20.50;;;22.90;85.00;;;;;;1871939;75;21174;-83
2022/02/07 00:48:57;;;;;;;28.30;19.57;;;22.90;84.60;;;;;;1880454;74;21210;-84
2022/02/07 00:51:28;;;;;;;25.82;17.85;;;22.90;85.60;;;;;;1798883;77;21101;-85
2022/02/07 00:54:00;;;;;;;22.07;18.17;;;23.00;84.60;;;;;;1884342;75;21226;-84
2022/02/07 00:56:30;;;;;;;26.85;19.70;;;23.00;84.40;;;;;;1896856;74;21209;-85
2022/02/07 00:59:01;;;;;;;29.63;20.55;;;23.00;84.40;;;;;;1892322;74;21127;-84
2022/02/07 01:01:33;;;;;;;26.48;18.73;;;23.00;84.20;;;;;;1888633;74;21119;-85
2022/02/07 01:04:04;;;;;;;28.83;18.35;;;23.00;84.10;;;;;;1881358;75;21583;-83
2022/02/07 01:06:35;;;;;;;27.35;18.30;;;23.10;84.40;;;;;;1878143;75;21159;-85
2022/02/07 01:17:19;;;;;;;34.25;18.75;;;23.10;84.20;;;;;;1889351;74;21190;-85
2022/02/07 01:19:58;;;;;;;26.05;18.00;;;23.10;84.10;;;;;;1879509;75;21171;-85
2022/02/07 01:22:11;;;;;;;27.82;19.62;;;23.10;84.10;;;;;;1886164;75;21829;-84
2022/02/07 01:50:06;;;;;;;27.37;19.50;;;23.40;84.40;;;;;;1895696;75;21154;-72
2022/02/07 01:55:01;;;;;;;32.23;19.67;;;23.40;84.10;;;;;;1879926;76;21186;-71
2022/02/07 01:57:19;;;;;;;31.85;20.55;;;23.40;84.40;;;;;;1879459;75;21115;-71
2022/02/07 01:59:50;;;;;;;31.70;21.27;;;23.40;84.70;;;;;;1883969;75;21134;-72
2022/02/07 02:02:21;;;;;;;33.95;21.17;;;23.50;84.90;;;;;;1908721;75;21835;-72
2022/02/07 02:04:52;;;;;;;29.10;19.27;;;23.50;84.60;;;;;;1907576;75;21572;-71
2022/02/07 02:07:22;;;;;;;27.58;18.52;;;23.60;83.90;;;;;;1891952;75;21305;-71
2022/02/07 02:09:53;;;;;;;31.42;18.42;;;23.70;84.00;;;;;;1906921;74;21142;-71
2022/02/07 02:12:27;;;;;;;31.93;18.87;;;23.80;84.10;;;;;;1912205;74;21625;-71
2022/02/07 02:15:20;;;;;;;29.32;18.75;;;23.90;83.70;;;;;;1891972;75;21418;-71
2022/02/07 02:17:45;;;;;;;27.80;18.32;;;23.90;83.30;;;;;;1878074;75;21147;-71
2022/02/07 02:38:00;;;;;;;23.80;17.80;;;24.30;82.00;;;;;;1864405;76;21146;-71
2022/02/07 02:45:30;;;;;;;29.60;19.00;;;24.50;81.30;;;;;;1895765;75;21158;-72
2022/02/07 02:48:01;;;;;;;31.15;18.60;;;24.50;81.30;;;;;;1878627;75;21574;-71
2022/02/07 02:50:36;;;;;;;29.35;19.42;;;24.50;81.30;;;;;;1882972;75;21582;-72
2022/02/07 02:53:06;;;;;;;29.57;19.70;;;24.60;81.00;;;;;;1902276;74;21099;-73
2022/02/07 02:55:39;;;;;;;30.75;19.55;;;24.60;80.80;;;;;;1921645;74;21614;-74
2022/02/07 02:58:13;;;;;;;28.40;21.17;;;24.60;81.00;;;;;;1861364;75;21091;-69
2022/02/07 03:00:46;;;;;;;27.37;19.90;;;24.70;80.70;;;;;;1882719;75;21244;-70
2022/02/07 03:03:18;;;;;;;25.85;19.17;;;24.80;80.50;;;;;;1894565;75;21178;-70
2022/02/07 03:05:49;;;;;;;27.27;18.15;;;24.80;80.60;;;;;;1894848;75;21602;-72
2022/02/07 03:08:20;;;;;;;26.57;17.37;;;24.80;80.20;;;;;;1889572;74;21123;-70
2022/02/07 03:18:25;;;;;;;24.25;14.70;;;25.20;79.00;;;;;;1877144;75;21142;-70
2022/02/07 03:20:56;;;;;;;20.97;14.65;;;25.30;78.20;;;;;;1874005;74;21158;-69
2022/02/07 03:23:28;;;;;;;22.62;14.95;;;25.30;77.80;;;;;;1881442;75;21080;-70
2022/02/07 03:25:58;;;;;;;24.57;14.83;;;25.40;76.80;;;;;;1896345;74;21856;-71
2022/02/07 03:28:30;;;;;;;22.67;16.67;;;25.60;76.70;;;;;;1877752;74;21137;-70
2022/02/07 03:31:01;;;;;;;35.05;16.40;;;25.70;76.80;;;;;;1882631;75;21630;-70
2022/02/07 03:33:33;;;;;;;21.35;14.38;;;25.80;76.70;;;;;;1883270;75;21100;-71
2022/02/07 03:36:04;;;;;;;23.38;14.65;;;25.90;76.60;;;;;;1880003;74;21217;-71
2022/02/07 03:38:35;;;;;;;19.23;14.58;;;26.00;75.70;;;;;;1884370;75;21092;-69
2022/02/07 03:41:08;;;;;;;22.70;14.18;;;26.10;75.40;;;;;;1889101;74;21638;-71
2022/02/07 03:43:39;;;;;;;18.52;13.53;;;26.30;74.30;;;;;;1878473;75;21080;-69
2022/02/07 03:46:09;;;;;;;22.45;14.38;;;26.30;74.60;;;;;;1875717;76;21080;-69
2022/02/07 03:48:40;;;;;;;20.52;14.18;;;26.50;75.50;;;;;;1875089;75;21206;-70
2022/02/07 03:51:11;;;;;;;23.20;14.55;;;26.60;73.90;;;;;;1879086;74;21147;-71
2022/02/07 03:53:42;;;;;;;20.95;14.68;;;26.80;73.20;;;;;;1881691;74;21080;-70
2022/02/07 03:56:13;;;;;;;17.57;12.85;;;26.80;73.40;;;;;;1875760;74;21167;-70
2022/02/07 03:58:44;;;;;;;18.80;13.78;;;26.90;72.20;;;;;;1878440;75;21186;-70
2022/02/07 04:01:15;;;;;;;26.48;14.23;;;27.00;71.70;;;;;;1873738;74;21111;-70
2022/02/07 04:03:46;;;;;;;16.40;13.95;;;27.10;71.90;;;;;;1895286;74;21185;-71
2022/02/07 04:06:19;;;;;;;19.75;13.78;;;27.20;71.80;;;;;;1890266;74;21205;-70
2022/02/07 04:08:53;;;;;;;19.27;13.88;;;27.30;71.90;;;;;;1884844;76;21190;-71
2022/02/07 04:12:06;;;;;;;20.32;15.05;;;27.40;70.20;;;;;;1878197;74;21065;-72
2022/02/07 04:13:56;;;;;;;18.77;14.43;;;27.40;69.60;;;;;;1854072;76;21199;-71
2022/02/07 04:16:28;;;;;;;23.83;15.18;;;27.50;69.70;;;;;;1856097;75;21632;-70
2022/02/07 04:19:05;;;;;;;26.33;14.40;;;27.60;69.50;;;;;;1880869;74;21237;-70
2022/02/07 04:21:30;;;;;;;22.42;15.05;;;27.50;68.00;;;;;;1874795;74;22067;-71
2022/02/07 04:24:01;;;;;;;23.40;14.85;;;27.80;68.60;;;;;;1826294;77;21161;-72
2022/02/07 04:26:31;;;;;;;24.23;13.90;;;28.00;68.20;;;;;;1870720;76;21213;-70
2022/02/07 04:29:03;;;;;;;23.73;13.60;;;28.10;67.80;;;;;;1884416;74;21506;-70
2022/02/07 04:31:35;;;;;;;19.10;14.47;;;28.20;66.50;;;;;;1897934;74;21211;-70
2022/02/07 04:34:06;;;;;;;26.10;13.90;;;28.30;66.50;;;;;;1889993;74;21176;-70
2022/02/07 04:36:40;;;;;;;15.70;12.43;;;28.40;65.70;;;;;;1884871;74;21230;-72
2022/02/07 04:39:09;;;;;;;18.65;12.82;;;28.50;64.60;;;;;;1866956;75;21130;-70
2022/02/07 04:41:41;;;;;;;19.57;13.88;;;28.50;64.60;;;;;;1889321;74;21135;-70
2022/02/07 04:44:19;;;;;;;16.25;12.95;;;28.60;64.90;;;;;;1891558;74;21092;-70
2022/02/07 04:52:04;;;;;;;18.85;14.40;;;28.70;64.90;;;;;;1902054;75;21155;-70
2022/02/07 04:59:36;;;;;;;19.25;13.93;;;28.90;66.60;;;;;;1894427;75;21139;-70
2022/02/07 05:02:07;;;;;;;20.90;14.38;;;28.90;64.70;;;;;;1875374;75;21512;-71
2022/02/07 05:04:34;;;;;;;20.72;14.75;;;29.00;64.30;;;;;;1898974;74;21162;-71
2022/02/07 05:14:42;;;;;;;17.62;13.48;;;29.60;62.10;;;;;;1877303;75;21595;-73
2022/02/07 05:17:13;;;;;;;20.17;13.28;;;29.80;61.70;;;;;;1882956;75;21602;-72
2022/02/07 05:19:43;;;;;;;20.82;14.18;;;29.80;61.10;;;;;;1903917;74;21536;-70
2022/02/07 05:22:14;;;;;;;17.98;13.85;;;29.80;61.20;;;;;;1899950;74;21463;-71
2022/02/07 05:24:45;;;;;;;26.02;15.23;;;29.90;61.80;;;;;;1881859;75;21119;-71
2022/02/07 05:27:15;;;;;;;19.48;13.83;;;30.00;62.40;;;;;;1885642;75;21155;-71
2022/02/07 05:29:46;;;;;;;19.00;14.38;;;30.10;61.30;;;;;;1889290;75;21195;-71
2022/02/07 05:32:17;;;;;;;20.45;14.40;;;30.20;61.80;;;;;;1880849;75;21609;-73
2022/02/07 05:34:48;;;;;;;16.52;13.90;;;30.30;61.80;;;;;;1887619;74;21131;-71
2022/02/07 05:37:20;;;;;;;21.95;14.73;;;30.30;60.40;;;;;;1884633;74;21147;-72
2022/02/07 05:39:57;;;;;;;20.43;15.35;;;30.40;60.40;;;;;;1883756;76;21829;-71
2022/02/07 05:42:23;;;;;;;21.95;15.80;;;30.30;60.10;;;;;;1907293;75;21508;-71
2022/02/07 05:44:54;;;;;;;22.35;15.78;;;30.30;60.80;;;;;;1886636;75;21150;-73
2022/02/07 05:47:25;;;;;;;24.05;15.98;;;30.30;61.60;;;;;;1890803;75;21131;-71
2022/02/07 05:49:56;;;;;;;21.65;13.80;;;30.40;61.80;;;;;;1878712;75;21147;-73
2022/02/07 05:52:27;;;;;;;20.92;15.25;;;30.40;61.70;;;;;;1881486;75;21587;-71
2022/02/07 05:54:58;;;;;;;18.07;14.35;;;30.50;61.70;;;;;;1884578;75;21213;-71
2022/02/07 05:57:29;;;;;;;20.72;14.55;;;30.50;61.30;;;;;;1885480;74;21169;-72
2022/02/07 05:59:59;;;;;;;17.32;12.70;;;30.60;61.00;;;;;;1887897;75;21108;-72
2022/02/07 06:02:30;;;;;;;17.12;13.25;;;30.60;59.60;;;;;;1889470;75;21216;-72
2022/02/07 06:05:01;;;;;;;18.35;12.90;;;30.60;59.10;;;;;;1884231;74;21090;-71
2022/02/07 06:07:32;;;;;;;17.10;12.30;;;30.70;59.30;;;;;;1883643;74;21198;-71
2022/02/07 06:10:04;;;;;;;15.53;12.05;;;30.70;59.30;;;;;;1882366;74;21147;-72
2022/02/07 06:12:36;;;;;;;21.73;14.90;;;30.80;58.70;;;;;;1884160;74;21535;-71
2022/02/07 06:15:08;;;;;;;15.65;12.23;;;30.90;58.70;;;;;;1883791;75;21076;-71
2022/02/07 06:17:40;;;;;;;18.35;12.53;;;30.90;59.40;;;;;;1882908;75;21151;-72
2022/02/07 06:20:11;;;;;;;15.60;12.07;;;31.00;59.00;;;;;;1892694;74;21559;-72
2022/02/07 06:22:42;;;;;;;17.40;12.30;;;31.00;58.50;;;;;;1887853;74;21122;-71
2022/02/07 06:25:14;;;;;;;16.17;11.90;;;30.90;58.30;;;;;;1907279;74;21539;-72
2022/02/07 06:27:45;;;;;;;16.20;13.00;;;30.90;58.30;;;;;;1886399;74;21244;-71
2022/02/07 06:30:16;;;;;;;14.47;11.08;;;30.90;58.40;;;;;;1880257;74;21163;-71
2022/02/07 06:32:46;;;;;;;17.35;12.20;;;31.00;57.80;;;;;;1890644;74;22098;-72
2022/02/07 06:35:17;;;;;;;18.00;12.73;;;31.00;58.90;;;;;;1876313;74;21092;-72
2022/02/07 06:37:48;;;;;;;15.98;12.37;;;31.10;58.20;;;;;;1876669;75;21174;-71
2022/02/07 06:40:20;;;;;;;18.25;13.95;;;31.10;57.40;;;;;;1884077;75;21159;-73
2022/02/07 06:42:50;;;;;;;16.20;12.10;;;31.00;57.90;;;;;;1885176;76;21520;-72
2022/02/07 06:45:21;;;;;;;17.17;12.70;;;31.00;58.40;;;;;;1875861;74;21161;-71
2022/02/07 06:47:52;;;;;;;22.05;14.00;;;30.90;58.10;;;;;;1811441;78;21520;-73
2022/02/07 06:50:23;;;;;;;15.03;12.33;;;30.80;58.50;;;;;;1883289;75;21213;-72
2022/02/07 06:52:54;;;;;;;18.98;13.83;;;30.90;58.50;;;;;;1881865;75;21226;-71
2022/02/07 06:55:25;;;;;;;17.40;13.60;;;31.00;58.60;;;;;;1881740;75;21077;-72
2022/02/07 06:57:55;;;;;;;16.02;12.93;;;31.00;57.70;;;;;;1881529;75;21126;-72
2022/02/07 07:00:26;;;;;;;19.70;14.05;;;31.10;58.10;;;;;;1885637;74;21150;-73
2022/02/07 07:02:57;;;;;;;17.98;13.43;;;31.10;58.20;;;;;;1913506;74;21598;-71
2022/02/07 07:05:28;;;;;;;15.53;13.03;;;31.20;57.90;;;;;;1900706;74;21662;-72
2022/02/07 07:08:01;;;;;;;17.92;12.80;;;31.30;57.70;;;;;;1881034;74;21116;-80
2022/02/07 07:10:32;;;;;;;21.80;13.55;;;31.30;57.50;;;;;;1911823;74;21123;-79
2022/02/07 07:13:13;;;;;;;18.17;12.98;;;31.30;56.70;;;;;;1883837;74;21567;-79
2022/02/07 07:15:43;;;;;;;16.32;12.45;;;31.20;57.40;;;;;;1880726;74;21161;-81
2022/02/07 07:18:11;;;;;;;14.63;12.25;;;31.10;57.90;;;;;;1929302;74;21139;-80
2022/02/07 07:20:42;;;;;;;23.22;13.38;;;31.10;58.20;;;;;;1900340;74;21174;-81
2022/02/07 07:23:13;;;;;;;19.37;12.88;;;31.10;58.00;;;;;;1858806;76;21143;-80
2022/02/07 07:25:45;;;;;;;20.15;13.40;;;31.20;58.20;;;;;;1909783;74;21080;-79
2022/02/07 07:28:17;;;;;;;16.20;13.03;;;31.30;58.30;;;;;;1902304;74;21111;-79
2022/02/07 07:30:54;;;;;;;17.05;12.40;;;31.30;57.20;;;;;;1874129;74;21232;-85
2022/02/07 07:33:25;;;;;;;15.65;11.80;;;31.40;56.90;;;;;;1885677;74;21683;-85
2022/02/07 07:36:07;;;;;;;14.60;11.80;;;31.40;57.30;;;;;;1884089;74;21131;-84
2022/02/07 07:38:37;;;;;;;13.80;11.53;;;31.40;57.20;;;;;;1822866;77;21215;-84
2022/02/07 07:41:27;;;;;;;13.60;11.80;;;31.40;57.40;;;;;;1896169;75;21192;-85
2022/02/07 07:44:01;;;;;;;16.60;12.18;;;31.40;57.30;;;;;;1882040;75;21142;-83
2022/02/07 07:46:34;;;;;;;15.35;11.93;;;31.40;56.60;;;;;;1862380;75;21147;-82
2022/02/07 07:49:18;;;;;;;15.43;12.05;;;31.40;57.80;;;;;;1883481;75;21147;-82
2022/02/07 07:51:52;;;;;;;19.32;12.40;;;31.40;57.80;;;;;;1878381;75;21174;-83
2022/02/07 07:55:27;;;;;;;16.10;12.28;;;31.40;57.00;;;;;;1883299;74;21080;-84
2022/02/07 08:02:20;;;;;;;17.50;13.15;;;31.50;58.30;;;;;;1875700;75;21142;-83
2022/02/07 08:05:09;;;;;;;13.70;11.93;;;31.40;57.00;;;;;;1878355;75;21166;-85
2022/02/07 08:07:37;;;;;;;15.68;12.68;;;31.40;56.80;;;;;;1871920;74;21222;-82
2022/02/07 08:12:56;;;;;;;17.05;11.88;;;31.40;56.60;;;;;;1876488;75;21245;-84
2022/02/07 08:15:29;;;;;;;15.78;11.63;;;31.40;57.10;;;;;;1882041;75;21182;-84
2022/02/07 08:18:07;;;;;;;16.87;12.80;;;31.40;57.30;;;;;;1880054;74;21120;-85
2022/02/07 08:20:51;;;;;;;16.48;12.20;;;31.30;57.80;;;;;;1858545;75;21252;-83
2022/02/07 08:23:22;;;;;;;22.80;15.00;;;31.30;57.40;;;;;;1879937;75;21221;-84
2022/02/07 08:25:53;;;;;;;16.10;12.05;;;31.30;57.10;;;;;;1878273;75;21831;-84
2022/02/07 08:28:25;;;;;;;16.12;12.80;;;31.30;56.80;;;;;;1873413;75;21592;-84
2022/02/07 08:30:56;;;;;;;14.70;11.55;;;31.30;57.40;;;;;;1876718;74;21714;-84
2022/02/07 08:33:27;;;;;;;14.25;12.20;;;31.30;57.60;;;;;;1876484;75;21100;-83
2022/02/07 08:35:57;;;;;;;14.53;11.80;;;31.30;57.30;;;;;;1875717;75;21134;-81
2022/02/07 08:38:29;;;;;;;21.37;15.15;;;31.30;57.50;;;;;;1878702;75;21127;-82
2022/02/07 08:41:02;;;;;;;17.23;12.58;;;31.20;58.20;;;;;;1876983;75;21246;-83
2022/02/07 08:43:33;;;;;;;17.12;12.68;;;31.20;57.70;;;;;;1877885;75;21163;-82
2022/02/07 08:46:04;;;;;;;16.30;12.40;;;31.20;57.80;;;;;;1877391;75;21205;-83
2022/02/07 08:48:35;;;;;;;18.17;14.28;;;31.20;57.50;;;;;;1877208;75;21155;-83
2022/02/07 08:51:06;;;;;;;19.00;16.73;;;31.20;57.50;;;;;;1877775;75;21143;-83
2022/02/07 08:53:42;;;;;;;18.82;14.43;;;31.20;58.50;;;;;;1877353;75;21777;-84
2022/02/07 08:56:12;;;;;;;15.28;12.37;;;31.20;58.00;;;;;;1879776;75;21220;-82
2022/02/07 08:58:45;;;;;;;18.10;12.15;;;31.20;57.20;;;;;;1880163;75;22071;-82
2022/02/07 09:01:22;;;;;;;14.75;12.40;;;31.20;57.40;;;;;;1878938;75;21156;-84
2022/02/07 09:06:36;;;;;;;14.58;11.65;;;31.20;57.80;;;;;;1877235;75;21138;-81
2022/02/07 09:11:27;;;;;;;14.75;12.18;;;31.20;57.40;;;;;;1879633;75;21678;-82
2022/02/07 09:14:00;;;;;;;14.90;11.85;;;31.10;57.70;;;;;;1881614;75;21127;-83
2022/02/07 09:16:30;;;;;;;15.65;11.93;;;31.20;57.10;;;;;;1880263;75;21232;-83
2022/02/07 09:19:04;;;;;;;16.77;13.22;;;31.20;57.10;;;;;;1872649;75;21677;-82
2022/02/07 09:21:48;;;;;;;14.03;11.93;;;31.10;57.20;;;;;;1867580;75;21165;-82
2022/02/07 09:24:32;;;;;;;17.27;12.55;;;31.10;57.70;;;;;;1852599;75;21726;-83
2022/02/07 09:27:03;;;;;;;13.78;11.90;;;31.10;57.70;;;;;;1877400;75;21736;-82
2022/02/07 09:29:34;;;;;;;15.60;12.50;;;31.10;57.80;;;;;;1878422;75;22546;-81
2022/02/07 09:32:08;;;;;;;16.93;12.45;;;31.10;57.70;;;;;;1877017;75;21190;-82
2022/02/07 09:34:40;;;;;;;14.00;12.28;;;31.10;58.70;;;;;;1875536;75;21539;-82
2022/02/07 09:37:10;;;;;;;15.85;12.45;;;31.00;58.40;;;;;;1878343;75;21882;-82
2022/02/07 09:39:41;;;;;;;15.68;11.85;;;30.90;58.50;;;;;;1858643;75;21120;-82
2022/02/07 09:42:12;;;;;;;19.27;16.20;;;30.90;58.30;;;;;;1876227;75;21674;-83
2022/02/07 09:44:47;;;;;;;14.10;11.90;;;30.90;58.70;;;;;;1879219;75;21702;-83
2022/02/07 09:47:26;;;;;;;17.55;13.58;;;30.90;58.20;;;;;;1877733;75;21297;-82
2022/02/07 09:49:53;;;;;;;21.37;15.60;;;30.90;59.20;;;;;;1809977;79;21085;-83
2022/02/07 09:52:24;;;;;;;13.32;11.93;;;30.80;59.00;;;;;;1872474;75;21197;-83
2022/02/07 09:54:55;;;;;;;15.20;12.60;;;30.70;58.90;;;;;;1877330;75;21981;-83
2022/02/07 09:57:26;;;;;;;15.08;11.95;;;30.60;59.10;;;;;;1876697;75;21145;-83
2022/02/07 10:00:03;;;;;;;15.78;13.40;;;30.60;59.40;;;;;;1877167;75;21159;-83
2022/02/07 10:05:06;;;;;;;17.20;13.10;;;30.50;59.80;;;;;;1878322;75;21202;-81
2022/02/07 10:07:50;;;;;;;25.08;16.27;;;30.40;60.00;;;;;;1875591;74;21670;-83
2022/02/07 10:12:57;;;;;;;21.42;14.55;;;30.30;60.30;;;;;;1876379;75;21170;-83
2022/02/07 10:15:27;;;;;;;19.10;13.62;;;30.30;60.50;;;;;;1873906;75;21603;-83
2022/02/07 10:38:23;;;;;;;19.70;13.98;;;29.90;63.00;;;;;;1876977;75;21178;-82
2022/02/07 10:41:06;;;;;;;17.92;14.90;;;29.90;63.20;;;;;;1879441;75;21155;-83
2022/02/07 10:45:51;;;;;;;20.68;14.10;;;29.80;63.90;;;;;;1878442;75;21143;-81
2022/02/07 10:48:26;;;;;;;19.05;14.58;;;29.80;64.30;;;;;;1876804;75;21197;-83
2022/02/07 10:50:59;;;;;;;19.57;14.40;;;29.70;65.70;;;;;;1875536;75;21189;-82
2022/02/07 10:53:29;;;;;;;19.98;15.05;;;29.70;65.30;;;;;;1870593;75;21154;-82
2022/02/07 10:56:02;;;;;;;29.70;16.40;;;29.70;65.30;;;;;;1799076;79;21250;-82
2022/02/07 10:58:34;;;;;;;28.90;16.32;;;29.70;65.40;;;;;;1877122;75;21156;-82
2022/02/07 11:03:44;;;;;;;24.72;17.67;;;29.50;65.80;;;;;;1870468;75;21229;-85
2022/02/07 11:06:15;;;;;;;29.23;18.42;;;29.50;65.90;;;;;;1878544;75;21552;-83
2022/02/07 11:08:51;;;;;;;21.27;15.78;;;29.50;66.00;;;;;;1875521;75;21167;-83
2022/02/07 11:14:03;;;;;;;23.15;16.20;;;29.40;66.80;;;;;;1876874;74;21599;-82
2022/02/07 11:16:42;;;;;;;24.63;15.80;;;29.40;66.80;;;;;;1801131;79;21105;-83
2022/02/07 11:19:07;;;;;;;40.23;23.83;;;29.30;66.80;;;;;;1877608;75;21895;-82
2022/02/07 11:21:41;;;;;;;30.77;22.90;;;29.30;67.10;;;;;;1876189;75;21432;-83
2022/02/07 11:24:06;;;;;;;34.88;22.45;;;29.30;67.30;;;;;;1875603;75;21131;-83
2022/02/07 11:26:48;;;;;;;28.45;20.27;;;29.20;67.80;;;;;;1877843;75;21157;-84
2022/02/07 11:29:12;;;;;;;30.55;20.20;;;29.20;67.80;;;;;;1878970;74;21205;-82
2022/02/07 11:31:43;;;;;;;27.40;21.80;;;29.20;67.90;;;;;;1871207;75;21264;-83
2022/02/07 11:34:15;;;;;;;29.77;20.20;;;29.10;67.90;;;;;;1875866;74;21665;-82
2022/02/07 11:36:47;;;;;;;27.00;19.80;;;29.10;68.30;;;;;;1880037;75;21088;-82
2022/02/07 11:39:20;;;;;;;29.98;20.10;;;29.10;68.30;;;;;;1880567;75;21638;-82
2022/02/07 11:41:53;;;;;;;27.17;20.95;;;29.00;68.00;;;;;;1882314;75;21171;-82
2022/02/07 11:44:26;;;;;;;25.57;20.37;;;29.00;68.30;;;;;;1883692;75;21135;-85
2022/02/07 11:46:59;;;;;;;27.13;20.77;;;28.90;68.50;;;;;;1874832;75;21171;-82
2022/02/07 11:49:31;;;;;;;30.40;21.35;;;28.90;68.70;;;;;;1873431;74;21176;-84
2022/02/07 11:52:04;;;;;;;31.55;21.17;;;28.90;69.00;;;;;;1880198;75;21654;-83
2022/02/07 11:54:37;;;;;;;25.75;21.60;;;28.90;68.90;;;;;;1873645;75;21150;-83
2022/02/07 11:57:11;;;;;;;30.20;21.75;;;28.80;69.10;;;;;;1882498;75;21135;-83
2022/02/07 11:59:44;;;;;;;42.23;31.00;;;28.80;69.30;;;;;;1887191;74;21188;-82
2022/02/07 12:02:18;;;;;;;48.00;33.35;;;28.80;69.40;;;;;;1872743;74;21143;-82
2022/02/07 12:04:46;;;;;;;48.52;31.85;;;28.80;69.60;;;;;;1883530;74;21120;-82
2022/02/07 12:07:20;;;;;;;43.17;30.45;;;28.80;69.80;;;;;;1889731;74;21044;-82
2022/02/07 12:09:50;;;;;;;37.33;26.85;;;28.70;70.00;;;;;;1883055;74;21103;-83
2022/02/07 12:12:24;;;;;;;31.93;24.70;;;28.80;70.10;;;;;;1859329;76;21627;-83
2022/02/07 12:14:57;;;;;;;30.30;23.57;;;28.70;70.30;;;;;;1846196;74;21212;-85
2022/02/07 12:17:30;;;;;;;31.35;22.82;;;28.70;70.50;;;;;;1872414;76;21151;-82
2022/02/07 12:20:04;;;;;;;31.37;23.12;;;28.70;71.10;;;;;;1858554;76;21615;-82
2022/02/07 12:22:37;;;;;;;30.62;25.17;;;28.60;70.60;;;;;;1858802;76;21139;-83
2022/02/07 12:25:11;;;;;;;36.65;24.40;;;28.60;71.20;;;;;;1883087;74;21182;-83
2022/02/07 12:27:44;;;;;;;32.23;23.35;;;28.60;71.40;;;;;;1887388;76;21123;-83
2022/02/07 12:30:45;;;;;;;29.37;22.48;;;28.60;71.50;;;;;;1883967;75;21152;-83
2022/02/07 12:32:52;;;;;;;31.77;23.55;;;28.50;71.50;;;;;;1879534;74;21096;-82
2022/02/07 12:35:25;;;;;;;31.02;22.90;;;28.60;71.60;;;;;;1887053;75;21709;-83
2022/02/07 12:37:57;;;;;;;33.98;23.22;;;28.50;72.70;;;;;;1879089;74;21115;-83
2022/02/07 12:40:28;;;;;;;33.08;21.15;;;28.50;72.00;;;;;;1881271;74;21123;-84
2022/02/07 12:43:04;;;;;;;29.30;22.37;;;28.50;72.20;;;;;;1876151;74;21199;-84
2022/02/07 12:45:35;;;;;;;33.55;22.30;;;28.50;72.30;;;;;;1864833;75;21761;-83
2022/02/07 12:48:17;;;;;;;29.67;21.40;;;28.50;72.50;;;;;;1877987;75;21119;-83
2022/02/07 12:50:41;;;;;;;31.45;20.02;;;28.40;72.50;;;;;;1883392;74;21283;-84
2022/02/07 12:53:12;;;;;;;25.08;20.15;;;28.40;72.60;;;;;;1862377;76;21092;-84
2022/02/07 12:55:46;;;;;;;31.20;21.10;;;28.40;72.70;;;;;;1880760;75;21114;-84
2022/02/07 12:58:19;;;;;;;26.97;21.27;;;28.40;72.70;;;;;;1886826;74;21195;-83
2022/02/07 13:00:50;;;;;;;25.82;20.48;;;28.40;72.90;;;;;;1903231;75;21776;-84
2022/02/07 13:03:22;;;;;;;25.97;20.72;;;28.30;72.80;;;;;;1881871;74;21243;-85
2022/02/07 13:05:53;;;;;;;27.65;19.65;;;28.30;72.90;;;;;;1881074;74;21202;-84
2022/02/07 13:08:24;;;;;;;29.00;20.65;;;28.30;72.90;;;;;;1897018;74;21136;-83
2022/02/07 13:10:56;;;;;;;26.37;20.08;;;28.30;72.90;;;;;;1878510;74;21697;-82
2022/02/07 13:13:30;;;;;;;27.13;20.23;;;28.30;72.90;;;;;;1900685;75;21492;-85
2022/02/07 13:16:00;;;;;;;34.83;21.17;;;28.30;73.00;;;;;;1898216;74;21159;-85
2022/02/07 13:18:34;;;;;;;26.62;20.30;;;28.30;73.70;;;;;;1835513;77;21171;-84
2022/02/07 13:21:08;;;;;;;30.85;21.50;;;28.30;72.90;;;;;;1838450;76;21559;-83
2022/02/07 13:23:36;;;;;;;30.90;21.48;;;28.30;72.70;;;;;;1870781;75;21139;-83
2022/02/07 13:26:09;;;;;;;27.30;20.62;;;28.30;72.70;;;;;;1908971;75;21631;-84
2022/02/07 13:28:42;;;;;;;30.48;21.07;;;28.30;72.60;;;;;;1891336;75;21173;-84
2022/02/07 13:31:13;;;;;;;28.17;22.13;;;28.30;72.70;;;;;;1902559;74;21217;-84
2022/02/07 13:33:47;;;;;;;29.67;22.37;;;28.30;72.60;;;;;;1885607;75;21166;-82
2022/02/07 13:36:20;;;;;;;28.87;22.60;;;28.30;72.60;;;;;;1879871;75;21665;-83
2022/02/07 13:38:53;;;;;;;29.52;22.22;;;28.20;72.50;;;;;;1874680;75;21127;-85
2022/02/07 13:41:24;;;;;;;30.85;22.17;;;28.30;72.70;;;;;;1882723;74;21241;-83
2022/02/07 13:43:57;;;;;;;31.60;24.10;;;28.30;72.70;;;;;;1872735;76;21122;-83
2022/02/07 13:46:30;;;;;;;28.67;22.25;;;28.20;72.70;;;;;;1890906;74;21155;-83
2022/02/07 13:49:02;;;;;;;31.00;22.02;;;28.30;72.70;;;;;;1878391;76;21116;-83
2022/02/07 13:51:33;;;;;;;24.87;21.12;;;28.20;72.70;;;;;;1891508;74;21187;-85
2022/02/07 13:54:04;;;;;;;28.42;22.02;;;28.20;72.90;;;;;;1904532;74;21477;-84
2022/02/07 13:56:36;;;;;;;34.88;22.85;;;28.20;73.00;;;;;;1885500;74;21131;-84
2022/02/07 13:59:09;;;;;;;35.25;22.55;;;28.20;72.70;;;;;;1887344;75;21175;-83
2022/02/07 14:01:40;;;;;;;30.92;22.87;;;28.20;73.20;;;;;;1906602;75;21135;-83
2022/02/07 14:04:13;;;;;;;32.00;26.12;;;28.20;73.10;;;;;;1884130;75;21217;-83
2022/02/07 14:06:48;;;;;;;29.27;23.15;;;28.20;72.90;;;;;;1891186;74;21162;-83
2022/02/07 14:09:16;;;;;;;35.88;23.62;;;28.10;72.60;;;;;;1904963;74;21536;-84
2022/02/07 14:11:51;;;;;;;33.85;23.50;;;28.10;73.60;;;;;;1857831;76;21161;-83
2022/02/07 14:14:19;;;;;;;32.17;23.38;;;28.10;72.60;;;;;;1897196;74;21167;-83
2022/02/07 14:16:50;;;;;;;31.02;23.65;;;28.10;72.50;;;;;;1891568;74;21139;-84
2022/02/07 14:19:23;;;;;;;29.40;23.22;;;28.10;72.70;;;;;;1885004;74;21908;-84
2022/02/07 14:21:54;;;;;;;31.50;23.75;;;28.10;72.70;;;;;;1882955;74;21544;-84
2022/02/07 14:24:27;;;;;;;35.17;24.45;;;28.10;72.80;;;;;;1884274;74;21107;-83
2022/02/07 14:26:58;;;;;;;35.35;24.07;;;28.10;72.80;;;;;;1894707;75;21516;-83
2022/02/07 14:29:29;;;;;;;27.32;21.60;;;28.10;73.10;;;;;;1916974;74;21116;-83
2022/02/07 14:32:02;;;;;;;27.35;21.93;;;28.00;72.90;;;;;;1908519;74;21441;-83
2022/02/07 14:34:33;;;;;;;29.72;22.95;;;28.00;72.50;;;;;;1882800;75;21083;-82
2022/02/07 14:37:09;;;;;;;30.40;23.20;;;28.00;72.70;;;;;;1888370;74;21280;-83
2022/02/07 14:39:37;;;;;;;32.33;22.25;;;28.00;72.80;;;;;;1903119;74;21590;-83
2022/02/07 14:42:11;;;;;;;33.40;23.50;;;28.00;73.00;;;;;;1893746;74;21119;-83
2022/02/07 14:47:36;;;;;;;33.20;22.73;;;27.90;73.00;;;;;;1897184;75;21221;-83
2022/02/07 14:49:48;;;;;;;28.85;21.80;;;27.90;72.80;;;;;;1900143;74;21228;-83
2022/02/07 14:52:19;;;;;;;28.30;23.30;;;27.90;72.70;;;;;;1883148;74;21192;-83
2022/02/07 14:54:50;;;;;;;30.02;23.15;;;27.90;72.70;;;;;;1886379;75;21672;-82
2022/02/07 14:57:20;;;;;;;30.97;24.60;;;27.90;72.80;;;;;;1870642;76;21505;-83
2022/02/07 14:59:51;;;;;;;32.55;23.90;;;27.90;72.80;;;;;;1879662;76;21163;-83
2022/02/07 15:02:22;;;;;;;31.42;24.45;;;27.90;72.80;;;;;;1862469;75;21248;-83
2022/02/07 15:04:54;;;;;;;35.80;25.27;;;27.90;73.10;;;;;;1876977;74;21132;-83
2022/02/07 15:07:25;;;;;;;33.88;25.92;;;27.80;73.10;;;;;;1886129;74;21226;-83
2022/02/07 15:09:56;;;;;;;32.83;26.33;;;27.80;73.20;;;;;;1883176;74;21135;-84